BENVENUTI AL 154° GRUPPO VIRTUALE
  • Coppia_Tornado_camo
  • linea_volo_F104G
  • cockpit_view
  • Tornado_grey
  • F84F_decollo
  • F84F_Garda
  • F-14B_coppia
  • F-14B_primopiano
  • F-14B_cockpit
  • Benvenuti al 154° Gruppo Virtuale


    Simulazione, Storia e Passione


  • Benvenuti al 154° Gruppo Virtuale


    Simulazione, Storia e Passione


  • Benvenuti al 154° Gruppo Virtuale


    Simulazione, Storia e Passione


  • Benvenuti al 154° Gruppo Virtuale


    Simulazione, Storia e Passione


  • Benvenuti al 154° Gruppo Virtuale


    Simulazione, Storia e Passione


  • Benvenuti al 154° Gruppo Virtuale


    Simulazione, Storia e Passione


  • Benvenuti al 154° Gruppo Virtuale


    Simulazione, Storia e Passione


  • Benvenuti al 154° Gruppo Virtuale


    Simulazione, Storia e Passione


  • Benvenuti al 154° Gruppo Virtuale


    Simulazione, Storia e Passione


METAR & TAF

[Source: ADDS]
METAR
LIPL 210555Z 07005KT 2000 BR SCT044 SCT060 13/11 Q1014 RMK OVC VIS MIN 2000 WIND THR31 07006KT WIND THR13 07004KT YLO =
LIPL 210500Z 2106/2115 06005KT 3000 BR SCT030 SCT070 TEMPO 2106/2109 2000 RA
TAF
LIPL 210500Z 2106/2115 06005KT 3000 BR SCT030 SCT070 TEMPO 2106/2109 2000 RA =

Notice: Undefined index: sun in /web/htdocs/www.154gruppovirtuale.it/home/modules/mod_wx/tmpl/default.php on line 13

Simulation Platform